Time;durP1;ratioP1;P1;durP2;ratioP2;P2;SDS_P1;SDS_P2;PMS_P1;PMS_P2;Temp;Humidity;BMP_temperature;BMP_pressure;BME280_temperature;BME280_humidity;BME280_pressure;Samples;Min_cycle;Max_cycle;Signal;HPM_P1;HPM_P2
2022/05/10 00:02:02;;;;;;;12.27;4.30;;;;;;;;;;5019207;28;20089;-64
2022/05/10 00:04:28;;;;;;;12.85;4.55;;;;;;;;;;5002531;28;20164;-64
2022/05/10 00:06:54;;;;;;;11.02;4.53;;;;;;;;;;5003645;28;20533;-64
2022/05/10 00:09:22;;;;;;;12.93;4.30;;;;;;;;;;5023573;28;20049;-63
2022/05/10 00:11:49;;;;;;;14.60;5.60;;;;;;;;;;5019039;28;20045;-66
2022/05/10 00:14:15;;;;;;;11.02;5.68;;;;;;;;;;5019109;28;20550;-64
2022/05/10 00:16:42;;;;;;;17.33;7.10;;;;;;;;;;5019204;28;20053;-64
2022/05/10 00:19:13;;;;;;;13.88;6.68;;;;;;;;;;5015170;28;20045;-64
2022/05/10 00:21:39;;;;;;;14.38;6.78;;;;;;;;;;5017397;28;20112;-64
2022/05/10 00:24:05;;;;;;;16.50;7.05;;;;;;;;;;5017884;28;20042;-65
2022/05/10 00:26:31;;;;;;;13.50;6.80;;;;;;;;;;5015660;28;20492;-64
2022/05/10 00:28:57;;;;;;;14.98;7.85;;;;;;;;;;5018212;28;20337;-64
2022/05/10 00:31:23;;;;;;;12.23;6.82;;;;;;;;;;5006268;28;20038;-65
2022/05/10 00:33:50;;;;;;;14.55;7.18;;;;;;;;;;5014900;28;20085;-65
2022/05/10 00:36:17;;;;;;;14.95;7.28;;;;;;;;;;5000144;28;20068;-64
2022/05/10 00:38:43;;;;;;;15.27;7.25;;;;;;;;;;5022819;28;20100;-64
2022/05/10 00:41:21;;;;;;;15.13;6.72;;;;;;;;;;5016869;28;20069;-63
2022/05/10 00:43:50;;;;;;;12.73;7.03;;;;;;;;;;5010155;28;20042;-64
2022/05/10 00:46:18;;;;;;;10.90;6.65;;;;;;;;;;5015642;28;20034;-64
2022/05/10 00:48:47;;;;;;;12.18;7.25;;;;;;;;;;5019640;28;20133;-64
2022/05/10 00:51:19;;;;;;;13.93;6.93;;;;;;;;;;5023137;28;20116;-65
2022/05/10 00:53:50;;;;;;;15.88;7.80;;;;;;;;;;5019935;28;20403;-64
2022/05/10 00:56:24;;;;;;;15.32;7.50;;;;;;;;;;5013230;28;20480;-64
2022/05/10 00:58:55;;;;;;;17.73;8.15;;;;;;;;;;5017440;28;20424;-64
2022/05/10 01:01:25;;;;;;;16.73;8.18;;;;;;;;;;5022648;28;20038;-63
2022/05/10 01:04:16;;;;;;;14.55;8.15;;;;;;;;;;5016359;28;20049;-65
2022/05/10 01:07:01;;;;;;;16.23;9.32;;;;;;;;;;5019495;28;20080;-65
2022/05/10 01:09:35;;;;;;;15.68;9.98;;;;;;;;;;5019963;28;20041;-64
2022/05/10 01:12:08;;;;;;;12.30;8.68;;;;;;;;;;5016706;28;20487;-64
2022/05/10 01:14:46;;;;;;;18.67;9.38;;;;;;;;;;5023657;28;20484;-63
2022/05/10 01:17:13;;;;;;;17.35;10.02;;;;;;;;;;5037093;28;20730;-63
2022/05/10 01:19:40;;;;;;;16.52;9.88;;;;;;;;;;5020141;28;20430;-64
2022/05/10 01:22:13;;;;;;;17.17;10.05;;;;;;;;;;4999065;28;20058;-65
2022/05/10 01:24:50;;;;;;;14.20;9.07;;;;;;;;;;5017191;28;20499;-64
2022/05/10 01:27:19;;;;;;;20.92;10.27;;;;;;;;;;5001814;28;20054;-64
2022/05/10 01:29:58;;;;;;;18.00;9.20;;;;;;;;;;5019923;28;20041;-65
2022/05/10 01:35:15;;;;;;;14.98;9.48;;;;;;;;;;5019786;28;20504;-65
2022/05/10 01:37:45;;;;;;;19.85;9.80;;;;;;;;;;5016930;28;20109;-65
2022/05/10 01:40:16;;;;;;;15.00;9.25;;;;;;;;;;5012521;28;20045;-64
2022/05/10 01:42:56;;;;;;;16.27;8.75;;;;;;;;;;5022647;28;20033;-64
2022/05/10 01:45:42;;;;;;;15.80;8.82;;;;;;;;;;5021276;28;20120;-64
2022/05/10 01:48:10;;;;;;;15.77;7.95;;;;;;;;;;5016873;28;20041;-65
2022/05/10 01:50:41;;;;;;;15.98;8.00;;;;;;;;;;5018129;28;20557;-64
2022/05/10 01:53:10;;;;;;;17.10;8.20;;;;;;;;;;5018208;28;20073;-64
2022/05/10 01:55:38;;;;;;;14.80;7.63;;;;;;;;;;5020913;28;20534;-64
2022/05/10 01:58:12;;;;;;;17.95;7.40;;;;;;;;;;4999507;28;20038;-64
2022/05/10 02:00:39;;;;;;;14.30;7.25;;;;;;;;;;5012487;28;20424;-63
2022/05/10 02:03:08;;;;;;;17.92;7.55;;;;;;;;;;5021511;28;20046;-64
2022/05/10 02:05:34;;;;;;;14.75;7.70;;;;;;;;;;5011330;28;20049;-63
2022/05/10 02:08:03;;;;;;;15.88;7.95;;;;;;;;;;5016207;28;20037;-64
2022/05/10 02:10:41;;;;;;;14.73;7.97;;;;;;;;;;5018151;28;20052;-63
2022/05/10 02:13:11;;;;;;;16.67;8.00;;;;;;;;;;5014203;28;21169;-64
2022/05/10 02:15:42;;;;;;;13.13;7.85;;;;;;;;;;5021099;28;20046;-63
2022/05/10 02:18:11;;;;;;;14.48;7.60;;;;;;;;;;5015558;28;20037;-64
2022/05/10 02:21:04;;;;;;;11.40;7.15;;;;;;;;;;5011487;28;20084;-64
2022/05/10 02:23:38;;;;;;;11.57;7.15;;;;;;;;;;4993769;28;20490;-65
2022/05/10 02:26:07;;;;;;;14.40;7.90;;;;;;;;;;5021168;28;20580;-64
2022/05/10 02:28:36;;;;;;;13.80;7.55;;;;;;;;;;5020181;28;20065;-64
2022/05/10 02:31:05;;;;;;;17.35;8.50;;;;;;;;;;4999477;28;20492;-63
2022/05/10 02:33:31;;;;;;;12.70;7.20;;;;;;;;;;5013917;28;20069;-64
2022/05/10 02:35:59;;;;;;;16.98;7.65;;;;;;;;;;5018829;28;20050;-64
2022/05/10 02:38:30;;;;;;;15.02;7.97;;;;;;;;;;5021710;28;20065;-63
2022/05/10 02:40:58;;;;;;;13.23;7.35;;;;;;;;;;5001903;28;20041;-65
2022/05/10 02:43:29;;;;;;;13.30;7.30;;;;;;;;;;5013061;28;20555;-65
2022/05/10 02:45:55;;;;;;;13.80;6.63;;;;;;;;;;5025569;28;20472;-65
2022/05/10 02:48:23;;;;;;;12.80;7.60;;;;;;;;;;5014522;28;20046;-64
2022/05/10 02:50:49;;;;;;;15.38;7.07;;;;;;;;;;5014381;28;20046;-65
2022/05/10 02:53:15;;;;;;;15.43;7.15;;;;;;;;;;5013114;28;20048;-64
2022/05/10 02:55:44;;;;;;;14.85;7.57;;;;;;;;;;5018753;28;20037;-65
2022/05/10 02:58:29;;;;;;;12.45;7.05;;;;;;;;;;5006602;28;20049;-64
2022/05/10 03:00:59;;;;;;;14.45;6.93;;;;;;;;;;5010968;28;20072;-64
2022/05/10 03:03:27;;;;;;;15.25;7.75;;;;;;;;;;5011463;28;20095;-66
2022/05/10 03:05:54;;;;;;;14.85;7.45;;;;;;;;;;5019133;28;20447;-64
2022/05/10 03:08:21;;;;;;;12.70;6.97;;;;;;;;;;5013625;28;20091;-64
2022/05/10 03:10:47;;;;;;;12.73;7.30;;;;;;;;;;5016656;28;20037;-64
2022/05/10 03:13:13;;;;;;;17.42;7.13;;;;;;;;;;5010185;28;20042;-64
2022/05/10 03:15:40;;;;;;;15.02;7.47;;;;;;;;;;5001401;28;20037;-64
2022/05/10 03:18:06;;;;;;;12.73;7.93;;;;;;;;;;5013812;28;20432;-64
2022/05/10 03:20:32;;;;;;;18.92;7.90;;;;;;;;;;5017022;28;20042;-64
2022/05/10 03:22:59;;;;;;;15.57;7.18;;;;;;;;;;5015587;28;20037;-64
2022/05/10 03:25:25;;;;;;;11.07;7.32;;;;;;;;;;4994260;28;20408;-65
2022/05/10 03:27:52;;;;;;;14.18;7.30;;;;;;;;;;5001875;28;20037;-63
2022/05/10 03:30:18;;;;;;;14.93;7.78;;;;;;;;;;5020416;28;20041;-64
2022/05/10 03:32:44;;;;;;;15.82;7.00;;;;;;;;;;5014647;28;20496;-63
2022/05/10 03:35:13;;;;;;;13.88;7.55;;;;;;;;;;5021324;28;20168;-63
2022/05/10 03:37:39;;;;;;;18.77;8.55;;;;;;;;;;5021961;28;20041;-64
2022/05/10 03:40:06;;;;;;;13.88;7.43;;;;;;;;;;5016340;28;20622;-64
2022/05/10 03:42:33;;;;;;;14.75;8.02;;;;;;;;;;5024440;28;20041;-64
2022/05/10 03:44:59;;;;;;;16.25;8.32;;;;;;;;;;5025483;28;20072;-64
2022/05/10 03:47:26;;;;;;;15.65;8.10;;;;;;;;;;5021189;28;20098;-64
2022/05/10 03:49:53;;;;;;;14.38;7.97;;;;;;;;;;5023967;28;20049;-64
2022/05/10 03:52:20;;;;;;;12.57;7.75;;;;;;;;;;5014329;28;20046;-64
2022/05/10 03:54:46;;;;;;;13.38;7.28;;;;;;;;;;5015011;28;20037;-64
2022/05/10 03:57:12;;;;;;;14.52;7.35;;;;;;;;;;4999975;28;20467;-63
2022/05/10 03:59:41;;;;;;;13.15;7.47;;;;;;;;;;5013223;28;20048;-64
2022/05/10 04:02:11;;;;;;;13.10;6.95;;;;;;;;;;5024762;28;20084;-64
2022/05/10 04:04:37;;;;;;;14.30;7.68;;;;;;;;;;5013262;28;20122;-64
2022/05/10 04:07:03;;;;;;;12.27;7.40;;;;;;;;;;5007017;28;20550;-64
2022/05/10 04:09:29;;;;;;;13.60;7.18;;;;;;;;;;5013657;28;20044;-65
2022/05/10 04:11:55;;;;;;;12.18;7.20;;;;;;;;;;5002046;28;20440;-64
2022/05/10 04:14:21;;;;;;;12.35;7.70;;;;;;;;;;5005039;28;20128;-64
2022/05/10 04:16:47;;;;;;;12.98;7.63;;;;;;;;;;5019723;28;20056;-65
2022/05/10 04:19:13;;;;;;;14.23;8.35;;;;;;;;;;5015005;28;20042;-63
2022/05/10 04:21:39;;;;;;;14.10;7.78;;;;;;;;;;5020412;28;20052;-64
2022/05/10 04:24:06;;;;;;;14.63;7.53;;;;;;;;;;5021259;28;20107;-64
2022/05/10 04:26:32;;;;;;;12.23;7.85;;;;;;;;;;5008736;28;20380;-65
2022/05/10 04:28:58;;;;;;;11.55;7.85;;;;;;;;;;5018320;28;20089;-63
2022/05/10 04:31:25;;;;;;;14.75;8.25;;;;;;;;;;5018659;28;20070;-63
2022/05/10 04:33:51;;;;;;;14.85;8.00;;;;;;;;;;4999406;28;20592;-65
2022/05/10 04:36:17;;;;;;;11.80;7.57;;;;;;;;;;5020455;28;20065;-64
2022/05/10 04:38:47;;;;;;;14.25;8.35;;;;;;;;;;5017842;28;20069;-63
2022/05/10 04:41:25;;;;;;;13.57;7.72;;;;;;;;;;5000841;28;20060;-65
2022/05/10 04:44:10;;;;;;;15.85;7.55;;;;;;;;;;5020705;28;20065;-65
2022/05/10 04:46:37;;;;;;;19.55;8.48;;;;;;;;;;5012600;28;20092;-64
2022/05/10 04:49:04;;;;;;;14.10;8.75;;;;;;;;;;5018473;28;20398;-65
2022/05/10 04:51:30;;;;;;;14.95;8.55;;;;;;;;;;5020369;28;20081;-64
2022/05/10 04:53:57;;;;;;;14.32;8.55;;;;;;;;;;5022251;28;20042;-64
2022/05/10 04:56:23;;;;;;;12.68;8.15;;;;;;;;;;5021836;28;20038;-64
2022/05/10 04:58:49;;;;;;;12.57;8.15;;;;;;;;;;5021025;28;20128;-64
2022/05/10 05:01:16;;;;;;;15.52;8.23;;;;;;;;;;5015046;28;20037;-65
2022/05/10 05:03:43;;;;;;;14.45;7.90;;;;;;;;;;5020473;28;20067;-64
2022/05/10 05:06:09;;;;;;;12.90;8.05;;;;;;;;;;5024817;28;20069;-64
2022/05/10 05:08:35;;;;;;;14.00;7.78;;;;;;;;;;5020103;28;20053;-64
2022/05/10 05:11:01;;;;;;;15.48;7.95;;;;;;;;;;5019951;28;20499;-64
2022/05/10 05:13:28;;;;;;;13.40;8.30;;;;;;;;;;5019586;28;20030;-64
2022/05/10 05:15:54;;;;;;;15.68;7.57;;;;;;;;;;5017600;28;20052;-65
2022/05/10 05:18:21;;;;;;;14.93;8.13;;;;;;;;;;5015149;28;20100;-64
2022/05/10 05:20:47;;;;;;;13.73;8.50;;;;;;;;;;5018703;28;20390;-65
2022/05/10 05:23:14;;;;;;;14.25;8.70;;;;;;;;;;4995708;28;20042;-64
2022/05/10 05:25:41;;;;;;;12.77;8.18;;;;;;;;;;5016437;28;20073;-63
2022/05/10 05:28:08;;;;;;;14.75;8.18;;;;;;;;;;5021587;28;20038;-64
2022/05/10 05:30:34;;;;;;;13.48;8.55;;;;;;;;;;5015527;28;20068;-65
2022/05/10 05:33:00;;;;;;;14.10;9.05;;;;;;;;;;4996966;28;20050;-64
2022/05/10 05:35:26;;;;;;;12.55;8.50;;;;;;;;;;5018271;28;20084;-64
2022/05/10 05:37:54;;;;;;;16.15;9.00;;;;;;;;;;5013902;28;20042;-64
2022/05/10 05:40:20;;;;;;;17.25;8.85;;;;;;;;;;5001225;28;20239;-64
2022/05/10 05:42:47;;;;;;;15.52;9.30;;;;;;;;;;5018240;28;20436;-64
2022/05/10 05:45:14;;;;;;;18.85;9.07;;;;;;;;;;5015117;28;20041;-65
2022/05/10 05:47:41;;;;;;;14.30;9.05;;;;;;;;;;4999966;28;20046;-65
2022/05/10 05:50:07;;;;;;;14.73;9.40;;;;;;;;;;4994728;28;20044;-64
2022/05/10 05:52:34;;;;;;;14.32;8.98;;;;;;;;;;5020120;28;20703;-64
2022/05/10 05:55:00;;;;;;;16.50;9.35;;;;;;;;;;5014728;28;20041;-63
2022/05/10 05:57:26;;;;;;;16.70;9.15;;;;;;;;;;4996249;28;20120;-66
2022/05/10 05:59:53;;;;;;;14.82;8.90;;;;;;;;;;5011794;28;20102;-65
2022/05/10 06:02:20;;;;;;;13.70;8.10;;;;;;;;;;4987984;28;20033;-64
2022/05/10 06:04:46;;;;;;;14.55;9.45;;;;;;;;;;5018426;28;20042;-64
2022/05/10 06:07:15;;;;;;;14.90;8.98;;;;;;;;;;5012601;28;20531;-64
2022/05/10 06:09:42;;;;;;;17.00;9.52;;;;;;;;;;5020331;28;20077;-64
2022/05/10 06:12:09;;;;;;;16.35;9.57;;;;;;;;;;5011682;28;20451;-63
2022/05/10 06:14:35;;;;;;;17.33;9.88;;;;;;;;;;5017832;28;20041;-64
2022/05/10 06:17:02;;;;;;;14.57;9.38;;;;;;;;;;5013092;28;20073;-64
2022/05/10 06:19:29;;;;;;;17.83;9.55;;;;;;;;;;4994075;28;20045;-64
2022/05/10 06:21:55;;;;;;;12.85;8.52;;;;;;;;;;5014234;28;20588;-64
2022/05/10 06:24:22;;;;;;;12.77;9.13;;;;;;;;;;5013863;28;20054;-64
2022/05/10 06:26:48;;;;;;;13.40;8.93;;;;;;;;;;5012035;28;20038;-65
2022/05/10 06:29:14;;;;;;;16.98;8.95;;;;;;;;;;5017743;28;20053;-65
2022/05/10 06:31:41;;;;;;;12.50;8.65;;;;;;;;;;5017177;28;20041;-64
2022/05/10 06:34:08;;;;;;;13.73;8.45;;;;;;;;;;5019206;28;20042;-63
2022/05/10 06:36:34;;;;;;;14.48;9.55;;;;;;;;;;5015308;28;20113;-64
2022/05/10 06:39:00;;;;;;;15.65;8.52;;;;;;;;;;5009823;28;20042;-63
2022/05/10 06:41:26;;;;;;;14.05;8.77;;;;;;;;;;5020487;28;20047;-64
2022/05/10 06:43:52;;;;;;;14.95;8.75;;;;;;;;;;5011448;28;20503;-64
2022/05/10 06:46:21;;;;;;;12.52;7.78;;;;;;;;;;5014873;28;20103;-65
2022/05/10 06:48:47;;;;;;;14.70;7.53;;;;;;;;;;5017906;28;20376;-64
2022/05/10 06:51:15;;;;;;;11.85;8.05;;;;;;;;;;5021473;28;20542;-64
2022/05/10 06:53:41;;;;;;;12.00;7.97;;;;;;;;;;5010857;28;20046;-64
2022/05/10 06:56:07;;;;;;;9.98;7.10;;;;;;;;;;5024068;28;20122;-64
2022/05/10 06:58:33;;;;;;;14.43;7.18;;;;;;;;;;5016030;28;20046;-64
2022/05/10 07:00:59;;;;;;;8.25;6.38;;;;;;;;;;5017576;28;20076;-64
2022/05/10 07:03:28;;;;;;;9.32;6.63;;;;;;;;;;5012535;28;20044;-65
2022/05/10 07:05:55;;;;;;;8.75;5.85;;;;;;;;;;5015001;28;20041;-64
2022/05/10 07:08:22;;;;;;;7.32;5.72;;;;;;;;;;5012961;28;20045;-64
2022/05/10 07:10:48;;;;;;;8.77;5.65;;;;;;;;;;5014501;28;20042;-64
2022/05/10 07:13:15;;;;;;;10.65;5.00;;;;;;;;;;5014205;28;20072;-65
2022/05/10 07:15:41;;;;;;;8.90;5.03;;;;;;;;;;5000788;28;20077;-65
2022/05/10 07:18:07;;;;;;;26.15;6.15;;;;;;;;;;5019207;28;20049;-66
2022/05/10 07:20:33;;;;;;;6.22;3.92;;;;;;;;;;5019358;28;20042;-65
2022/05/10 07:22:59;;;;;;;6.28;4.30;;;;;;;;;;5019417;28;20458;-66
2022/05/10 07:25:28;;;;;;;6.82;4.18;;;;;;;;;;5022905;28;20445;-65
2022/05/10 07:27:54;;;;;;;6.22;3.85;;;;;;;;;;5004355;28;20045;-65
2022/05/10 07:30:21;;;;;;;7.43;4.35;;;;;;;;;;5018741;28;20076;-66
2022/05/10 07:32:47;;;;;;;6.90;3.95;;;;;;;;;;5020191;28;20049;-65
2022/05/10 07:35:14;;;;;;;11.00;4.20;;;;;;;;;;5019317;28;20041;-66
2022/05/10 07:37:40;;;;;;;7.72;3.50;;;;;;;;;;5015014;28;20050;-66
2022/05/10 07:40:07;;;;;;;6.28;3.08;;;;;;;;;;5021726;28;20060;-65
2022/05/10 07:42:35;;;;;;;6.70;3.30;;;;;;;;;;5023143;28;20050;-65
2022/05/10 07:45:01;;;;;;;5.95;3.00;;;;;;;;;;5022167;28;20447;-66
2022/05/10 07:47:27;;;;;;;6.60;3.00;;;;;;;;;;5020486;28;20107;-65
2022/05/10 07:49:53;;;;;;;6.93;2.75;;;;;;;;;;5017330;28;20045;-65
2022/05/10 07:52:19;;;;;;;9.57;3.10;;;;;;;;;;5037199;28;20042;-65
2022/05/10 07:54:45;;;;;;;6.47;2.83;;;;;;;;;;5024379;28;20108;-64
2022/05/10 07:57:11;;;;;;;5.25;3.25;;;;;;;;;;5020481;28;20473;-65
2022/05/10 07:59:43;;;;;;;6.93;3.03;;;;;;;;;;5012018;28;20396;-65
2022/05/10 08:02:10;;;;;;;8.02;3.65;;;;;;;;;;4996785;28;20498;-64
2022/05/10 08:04:36;;;;;;;6.53;3.00;;;;;;;;;;5014696;28;20052;-65
2022/05/10 08:07:03;;;;;;;7.15;3.40;;;;;;;;;;5003175;28;20130;-66
2022/05/10 08:09:29;;;;;;;8.52;3.53;;;;;;;;;;5019067;28;20049;-66
2022/05/10 08:11:55;;;;;;;7.00;3.42;;;;;;;;;;5006441;28;20045;-65
2022/05/10 08:14:21;;;;;;;9.90;3.60;;;;;;;;;;5017379;28;20137;-66
2022/05/10 08:16:47;;;;;;;11.05;3.47;;;;;;;;;;5004108;28;20049;-66
2022/05/10 08:19:14;;;;;;;6.63;2.60;;;;;;;;;;5015142;28;20038;-66
2022/05/10 08:21:40;;;;;;;7.80;2.33;;;;;;;;;;5001110;28;20437;-66
2022/05/10 08:24:06;;;;;;;6.25;2.17;;;;;;;;;;5019919;28;20046;-66
2022/05/10 08:26:33;;;;;;;7.30;2.00;;;;;;;;;;4983666;28;20116;-66
2022/05/10 08:28:59;;;;;;;4.57;2.05;;;;;;;;;;5019639;28;20148;-65
2022/05/10 08:31:25;;;;;;;8.70;2.38;;;;;;;;;;5001718;28;20388;-65
2022/05/10 08:33:52;;;;;;;7.13;2.10;;;;;;;;;;5023983;28;20431;-66
2022/05/10 08:36:18;;;;;;;11.30;2.08;;;;;;;;;;5014384;28;20050;-66
2022/05/10 08:38:44;;;;;;;8.02;1.75;;;;;;;;;;5023442;28;20380;-66
2022/05/10 08:41:42;;;;;;;7.47;1.55;;;;;;;;;;5013386;28;20108;-65
2022/05/10 08:44:16;;;;;;;9.77;1.90;;;;;;;;;;4999266;28;20041;-66
2022/05/10 08:46:47;;;;;;;155.20;8.30;;;;;;;;;;5020056;28;20037;-62
2022/05/10 08:49:19;;;;;;;12.07;2.13;;;;;;;;;;5021338;28;20047;-63
2022/05/10 08:51:45;;;;;;;7.47;1.60;;;;;;;;;;5016264;28;20056;-63
2022/05/10 08:54:12;;;;;;;4.30;1.48;;;;;;;;;;5024312;28;20048;-62
2022/05/10 08:56:41;;;;;;;8.60;1.40;;;;;;;;;;5012171;28;20531;-63
2022/05/10 08:59:26;;;;;;;5.75;1.25;;;;;;;;;;5028550;28;20058;-64
2022/05/10 09:01:59;;;;;;;8.02;2.10;;;;;;;;;;5006873;28;20034;-64
2022/05/10 09:04:25;;;;;;;8.50;2.03;;;;;;;;;;5015341;28;20075;-62
2022/05/10 09:06:55;;;;;;;3.67;1.63;;;;;;;;;;5015747;28;20139;-64
2022/05/10 09:09:29;;;;;;;7.85;1.67;;;;;;;;;;5021992;28;20431;-63
2022/05/10 09:12:03;;;;;;;9.05;1.65;;;;;;;;;;5019197;28;20067;-63
2022/05/10 09:14:32;;;;;;;11.45;2.58;;;;;;;;;;5018076;28;20065;-63
2022/05/10 09:16:59;;;;;;;7.60;2.00;;;;;;;;;;5023811;28;20045;-66
2022/05/10 09:19:31;;;;;;;10.93;1.55;;;;;;;;;;5020369;28;20045;-64
2022/05/10 09:21:57;;;;;;;5.00;1.95;;;;;;;;;;5017046;28;20050;-63
2022/05/10 09:24:34;;;;;;;12.48;1.83;;;;;;;;;;5017004;28;20052;-63
2022/05/10 09:27:04;;;;;;;9.90;1.88;;;;;;;;;;5001410;28;20410;-62
2022/05/10 09:29:49;;;;;;;11.15;2.03;;;;;;;;;;5017250;28;20073;-63
2022/05/10 09:35:15;;;;;;;8.20;1.70;;;;;;;;;;5018196;28;20057;-62
2022/05/10 09:37:50;;;;;;;12.40;1.80;;;;;;;;;;5010531;28;20054;-63
2022/05/10 09:40:28;;;;;;;6.97;1.75;;;;;;;;;;5008873;28;20050;-63
2022/05/10 09:43:10;;;;;;;6.18;1.77;;;;;;;;;;5008829;28;20113;-63
2022/05/10 09:45:36;;;;;;;8.10;1.90;;;;;;;;;;5008915;28;20076;-62
2022/05/10 09:48:15;;;;;;;8.77;1.60;;;;;;;;;;5030266;28;20116;-63
2022/05/10 09:50:46;;;;;;;6.97;1.73;;;;;;;;;;5027148;28;20423;-62
2022/05/10 09:53:12;;;;;;;7.38;1.85;;;;;;;;;;5018668;28;20602;-63
2022/05/10 09:55:38;;;;;;;9.15;1.60;;;;;;;;;;5019698;28;20047;-63
2022/05/10 09:58:16;;;;;;;5.18;1.63;;;;;;;;;;5012060;28;20041;-62
2022/05/10 10:00:44;;;;;;;6.93;1.55;;;;;;;;;;5018729;28;20139;-63
2022/05/10 10:03:21;;;;;;;4.35;1.40;;;;;;;;;;5016011;28;20052;-63
2022/05/10 10:05:47;;;;;;;6.30;1.90;;;;;;;;;;5019850;28;20486;-63
2022/05/10 10:08:14;;;;;;;6.03;1.92;;;;;;;;;;5017143;28;20065;-62
2022/05/10 10:10:40;;;;;;;8.25;2.13;;;;;;;;;;5000557;28;20590;-63
2022/05/10 10:13:26;;;;;;;10.82;2.20;;;;;;;;;;5008226;28;20053;-64
2022/05/10 10:15:52;;;;;;;9.52;2.15;;;;;;;;;;5009648;28;20111;-63
2022/05/10 10:18:37;;;;;;;7.88;2.40;;;;;;;;;;4991860;28;20070;-62
2022/05/10 10:21:03;;;;;;;8.90;2.28;;;;;;;;;;5008579;28;20061;-63
2022/05/10 10:23:37;;;;;;;6.45;2.10;;;;;;;;;;5009561;28;20346;-62
2022/05/10 10:26:19;;;;;;;7.72;2.30;;;;;;;;;;5008752;28;20119;-63
2022/05/10 10:29:05;;;;;;;6.63;2.03;;;;;;;;;;5008303;28;20128;-63
2022/05/10 10:31:34;;;;;;;4.95;2.08;;;;;;;;;;4991946;28;20103;-64
2022/05/10 10:34:09;;;;;;;5.35;2.10;;;;;;;;;;4991852;28;20076;-63
2022/05/10 10:36:48;;;;;;;7.30;2.45;;;;;;;;;;5008394;28;20492;-64
2022/05/10 10:39:23;;;;;;;9.98;2.42;;;;;;;;;;5008069;28;20131;-64
2022/05/10 10:42:01;;;;;;;8.10;2.50;;;;;;;;;;5008177;28;20071;-63
2022/05/10 10:44:28;;;;;;;7.65;2.13;;;;;;;;;;5009447;28;20049;-64
2022/05/10 10:47:04;;;;;;;6.90;2.10;;;;;;;;;;5008123;28;20050;-62
2022/05/10 10:49:38;;;;;;;6.05;2.15;;;;;;;;;;5008107;28;20389;-63
2022/05/10 10:52:04;;;;;;;7.22;2.50;;;;;;;;;;5008210;28;20037;-62
2022/05/10 10:54:32;;;;;;;10.20;2.50;;;;;;;;;;4992055;28;20053;-63
2022/05/10 10:57:04;;;;;;;6.43;2.20;;;;;;;;;;5008309;28;20472;-62
2022/05/10 10:59:33;;;;;;;6.63;2.17;;;;;;;;;;5007775;28;20042;-63
2022/05/10 11:02:02;;;;;;;5.95;2.55;;;;;;;;;;5008265;28;20118;-64
2022/05/10 11:04:47;;;;;;;5.63;2.80;;;;;;;;;;5008113;28;20049;-64
2022/05/10 11:07:18;;;;;;;7.30;2.65;;;;;;;;;;5009588;28;20080;-62
2022/05/10 11:09:44;;;;;;;5.40;2.70;;;;;;;;;;5009068;28;20539;-61
2022/05/10 11:12:36;;;;;;;4.60;2.50;;;;;;;;;;5009431;28;20046;-62
2022/05/10 11:15:21;;;;;;;10.20;2.25;;;;;;;;;;4999930;28;20423;-62
2022/05/10 11:18:06;;;;;;;6.93;2.28;;;;;;;;;;5009365;28;20563;-62
2022/05/10 11:20:32;;;;;;;6.63;2.80;;;;;;;;;;5008952;28;20042;-64
2022/05/10 11:23:06;;;;;;;5.80;2.80;;;;;;;;;;5007952;28;20054;-62
2022/05/10 11:25:44;;;;;;;4.00;2.42;;;;;;;;;;4991703;28;20042;-62
2022/05/10 11:28:17;;;;;;;8.32;2.90;;;;;;;;;;5008160;28;20133;-63
2022/05/10 11:31:01;;;;;;;9.85;3.20;;;;;;;;;;5007875;28;20081;-62
2022/05/10 11:33:41;;;;;;;12.82;4.07;;;;;;;;;;5007846;28;20098;-63
2022/05/10 11:36:07;;;;;;;6.30;3.83;;;;;;;;;;5009445;28;20068;-62
2022/05/10 11:38:52;;;;;;;12.23;3.83;;;;;;;;;;5007505;28;20759;-63
2022/05/10 11:41:37;;;;;;;10.25;3.83;;;;;;;;;;5007448;28;20049;-63
2022/05/10 11:44:15;;;;;;;8.13;4.07;;;;;;;;;;5007609;28;20180;-62
2022/05/10 11:46:55;;;;;;;10.70;3.78;;;;;;;;;;5009117;28;20038;-62
2022/05/10 11:49:36;;;;;;;10.63;3.10;;;;;;;;;;5008848;28;20053;-62
2022/05/10 11:52:14;;;;;;;7.88;3.80;;;;;;;;;;5008748;28;20050;-62
2022/05/10 11:54:59;;;;;;;11.50;3.55;;;;;;;;;;5007652;28;20108;-62
2022/05/10 11:57:25;;;;;;;8.73;2.80;;;;;;;;;;5011165;28;20590;-62
2022/05/10 11:59:52;;;;;;;5.22;1.70;;;;;;;;;;5010687;28;20050;-62
2022/05/10 12:02:30;;;;;;;7.95;2.00;;;;;;;;;;5011168;28;20404;-63
2022/05/10 12:05:14;;;;;;;5.40;1.85;;;;;;;;;;5012426;28;20046;-63
2022/05/10 12:07:45;;;;;;;6.70;2.15;;;;;;;;;;5011041;28;20049;-62
2022/05/10 12:10:23;;;;;;;6.78;1.95;;;;;;;;;;5011380;28;20053;-62
2022/05/10 12:12:52;;;;;;;11.73;2.05;;;;;;;;;;5012545;28;20049;-63
2022/05/10 12:21:21;;;;;;;7.95;2.22;;;;;;;;;;5011959;28;20053;-62
2022/05/10 12:24:02;;;;;;;8.63;1.42;;;;;;;;;;5010588;28;20050;-62
2022/05/10 12:26:48;;;;;;;8.60;1.60;;;;;;;;;;4994510;28;20103;-61
2022/05/10 12:29:36;;;;;;;12.65;1.92;;;;;;;;;;4994445;28;20104;-61
2022/05/10 12:32:05;;;;;;;8.10;2.10;;;;;;;;;;5012445;28;20049;-63
2022/05/10 12:34:49;;;;;;;7.18;1.75;;;;;;;;;;5010824;28;20049;-62
2022/05/10 12:37:35;;;;;;;7.07;2.20;;;;;;;;;;4994444;28;20097;-62
2022/05/10 12:40:01;;;;;;;8.20;2.50;;;;;;;;;;5010296;28;20054;-61
2022/05/10 12:42:27;;;;;;;8.93;2.47;;;;;;;;;;5010421;28;20030;-61
2022/05/10 12:44:58;;;;;;;8.65;2.72;;;;;;;;;;5011812;28;20046;-62
2022/05/10 12:47:36;;;;;;;8.15;2.83;;;;;;;;;;5010434;28;20153;-62
2022/05/10 12:50:21;;;;;;;8.45;2.83;;;;;;;;;;5011637;28;20038;-63
2022/05/10 12:52:48;;;;;;;6.00;2.97;;;;;;;;;;5011885;28;20121;-62
2022/05/10 12:55:23;;;;;;;5.80;3.33;;;;;;;;;;5011584;28;20049;-62
2022/05/10 12:57:58;;;;;;;8.68;2.97;;;;;;;;;;5009875;28;20305;-62
2022/05/10 13:00:26;;;;;;;5.93;3.30;;;;;;;;;;5011574;28;20614;-63
2022/05/10 13:02:55;;;;;;;7.25;3.35;;;;;;;;;;5011586;28;20113;-62
2022/05/10 13:05:47;;;;;;;8.95;3.97;;;;;;;;;;5010199;28;20038;-62
2022/05/10 13:08:13;;;;;;;8.55;3.28;;;;;;;;;;5010098;28;20056;-63
2022/05/10 13:10:39;;;;;;;6.97;3.22;;;;;;;;;;5014694;28;20202;-61
2022/05/10 13:13:08;;;;;;;5.78;2.88;;;;;;;;;;5004915;28;20053;-62
2022/05/10 13:15:39;;;;;;;7.30;3.10;;;;;;;;;;5001742;28;20115;-62
2022/05/10 13:18:06;;;;;;;10.23;3.20;;;;;;;;;;5024934;28;20037;-62
2022/05/10 13:20:33;;;;;;;9.77;2.70;;;;;;;;;;5006354;28;20044;-61
2022/05/10 13:23:00;;;;;;;6.32;3.17;;;;;;;;;;5018051;28;20516;-61
2022/05/10 13:25:27;;;;;;;7.95;2.00;;;;;;;;;;5015932;28;20060;-60
2022/05/10 13:28:05;;;;;;;6.35;1.80;;;;;;;;;;5023160;28;20045;-60
2022/05/10 13:30:31;;;;;;;8.25;1.90;;;;;;;;;;5014354;28;20041;-61
2022/05/10 13:32:58;;;;;;;9.13;1.67;;;;;;;;;;4993338;28;20057;-62
2022/05/10 13:35:35;;;;;;;6.63;1.33;;;;;;;;;;5009968;28;20132;-62
2022/05/10 13:38:28;;;;;;;4.28;1.27;;;;;;;;;;5006941;28;20041;-61
2022/05/10 13:40:55;;;;;;;8.35;0.85;;;;;;;;;;5014522;28;20523;-61
2022/05/10 13:43:25;;;;;;;5.40;1.10;;;;;;;;;;4992969;28;20034;-61
2022/05/10 13:45:53;;;;;;;8.68;0.88;;;;;;;;;;5011450;28;20042;-60
2022/05/10 13:48:22;;;;;;;5.68;0.70;;;;;;;;;;5009835;28;20046;-62
2022/05/10 13:50:51;;;;;;;5.72;0.52;;;;;;;;;;5009233;28;20107;-61
2022/05/10 13:53:28;;;;;;;4.45;0.50;;;;;;;;;;5010808;28;20041;-61
2022/05/10 13:55:55;;;;;;;9.23;0.50;;;;;;;;;;4993256;28;20038;-61
2022/05/10 13:58:48;;;;;;;5.80;0.50;;;;;;;;;;4992773;28;20571;-61
2022/05/10 14:01:14;;;;;;;5.38;0.65;;;;;;;;;;5009230;28;20054;-61
2022/05/10 14:03:40;;;;;;;3.92;0.65;;;;;;;;;;5009192;28;20034;-62
2022/05/10 14:06:08;;;;;;;7.18;0.50;;;;;;;;;;5010590;28;20052;-60
2022/05/10 14:08:38;;;;;;;5.30;0.40;;;;;;;;;;5010434;28;20042;-62
2022/05/10 14:11:19;;;;;;;3.90;0.30;;;;;;;;;;5008995;28;20038;-62
2022/05/10 14:13:51;;;;;;;7.45;0.50;;;;;;;;;;5008728;28;20033;-61
2022/05/10 14:16:31;;;;;;;2.83;0.20;;;;;;;;;;5008926;28;20048;-63
2022/05/10 14:18:58;;;;;;;3.35;0.40;;;;;;;;;;5009840;28;20057;-61
2022/05/10 14:21:26;;;;;;;4.25;0.20;;;;;;;;;;5008846;28;20053;-61
2022/05/10 14:23:54;;;;;;;2.35;0.25;;;;;;;;;;5009911;28;20124;-62
2022/05/10 14:26:25;;;;;;;2.30;0.20;;;;;;;;;;5008805;28;20049;-62
2022/05/10 14:28:54;;;;;;;2.75;0.25;;;;;;;;;;5009654;28;20042;-61
2022/05/10 14:31:33;;;;;;;2.53;0.20;;;;;;;;;;5010174;28;20125;-60
2022/05/10 14:34:02;;;;;;;3.22;0.17;;;;;;;;;;5010013;28;20124;-62
2022/05/10 14:36:38;;;;;;;2.42;0.15;;;;;;;;;;5008663;28;20042;-61
2022/05/10 14:39:07;;;;;;;4.18;0.30;;;;;;;;;;5008437;28;20042;-61
2022/05/10 14:41:44;;;;;;;2.03;0.20;;;;;;;;;;5008239;28;20042;-61
2022/05/10 14:44:12;;;;;;;2.38;0.20;;;;;;;;;;5010182;28;20037;-62
2022/05/10 14:46:46;;;;;;;2.15;0.32;;;;;;;;;;5008235;28;20112;-61
2022/05/10 14:49:12;;;;;;;4.35;0.50;;;;;;;;;;5009541;28;20515;-60
2022/05/10 14:51:44;;;;;;;4.75;0.50;;;;;;;;;;5009547;28;20044;-61
2022/05/10 14:54:11;;;;;;;7.07;0.70;;;;;;;;;;5008349;28;20045;-61
2022/05/10 14:56:44;;;;;;;3.10;0.50;;;;;;;;;;5009645;28;20045;-62
2022/05/10 14:59:14;;;;;;;6.68;0.82;;;;;;;;;;5009212;28;20499;-61
2022/05/10 15:01:40;;;;;;;3.15;0.63;;;;;;;;;;5008494;28;20041;-61
2022/05/10 15:04:13;;;;;;;6.18;0.70;;;;;;;;;;5013254;28;20096;-61
2022/05/10 15:06:40;;;;;;;7.82;0.95;;;;;;;;;;5009094;28;20073;-61